Time;durP1;ratioP1;P1;durP2;ratioP2;P2;SDS_P1;SDS_P2;PMS_P1;PMS_P2;Temp;Humidity;BMP_temperature;BMP_pressure;BME280_temperature;BME280_humidity;BME280_pressure;Samples;Min_cycle;Max_cycle;Signal;HPM_P1;HPM_P2
2023/05/21 00:03:52;;;;;;;24.97;15.33;;;;;;;15.03;100.00;99531.53;12210022;19;20018;-80
2023/05/21 00:07:54;;;;;;;24.20;13.30;;;;;;;14.99;100.00;99536.81;12210101;19;20006;-81
2023/05/21 00:11:55;;;;;;;25.52;14.68;;;;;;;15.03;100.00;99531.53;12189605;19;20464;-81
2023/05/21 00:15:57;;;;;;;24.60;14.13;;;;;;;15.03;100.00;99524.03;12207508;19;20058;-80
2023/05/21 00:20:00;;;;;;;23.55;14.40;;;;;;;14.99;100.00;99527.66;12217160;19;20031;-79
2023/05/21 00:24:03;;;;;;;23.50;14.48;;;;;;;14.99;100.00;99511.84;12197652;19;20113;-80
2023/05/21 00:28:04;;;;;;;23.60;14.32;;;;;;;14.96;100.00;99520.75;12218530;19;20467;-80
2023/05/21 00:32:07;;;;;;;27.73;16.65;;;;;;;14.94;100.00;99506.31;12204392;19;20011;-80
2023/05/21 00:36:13;;;;;;;24.37;14.47;;;;;;;14.95;100.00;99507.97;12213166;19;20007;-79
2023/05/21 00:40:15;;;;;;;25.23;14.45;;;;;;;14.94;100.00;99502.72;12217276;19;20003;-81
2023/05/21 00:44:18;;;;;;;22.93;15.17;;;;;;;14.93;100.00;99499.13;12197089;19;20009;-80
2023/05/21 00:48:20;;;;;;;24.85;15.00;;;;;;;14.93;100.00;99492.72;12214065;19;20003;-81
2023/05/21 00:52:21;;;;;;;23.52;15.07;;;;;;;14.93;100.00;99496.34;12220293;19;20511;-81
2023/05/21 00:56:26;;;;;;;22.65;14.77;;;;;;;14.94;100.00;99498.00;12194396;19;20018;-81
2023/05/21 01:00:27;;;;;;;20.60;12.60;;;;;;;14.95;100.00;99493.28;12220969;19;20079;-80
2023/05/21 01:04:30;;;;;;;22.57;13.93;;;;;;;14.99;100.00;99489.66;12216820;19;20372;-81
2023/05/21 01:08:33;;;;;;;23.52;14.57;;;;;;;14.99;100.00;99484.13;12194383;19;20034;-79
2023/05/21 01:12:38;;;;;;;23.38;13.88;;;;;;;14.99;100.00;99486.03;12216766;19;20007;-81
2023/05/21 01:16:42;;;;;;;22.17;13.75;;;;;;;15.01;100.00;99469.94;12213858;19;20080;-81
2023/05/21 01:20:47;;;;;;;19.55;13.18;;;;;;;14.99;100.00;99474.94;12196112;19;20121;-80
2023/05/21 01:24:49;;;;;;;21.10;13.18;;;;;;;15.03;100.00;99465.75;12231998;19;20361;-80
2023/05/21 01:28:52;;;;;;;25.88;14.20;;;;;;;15.02;100.00;99463.25;12230162;19;20020;-79
2023/05/21 01:33:14;;;;;;;24.13;14.70;;;;;;;15.02;100.00;99463.25;12206062;19;20006;-79
2023/05/21 01:37:25;;;;;;;21.30;13.47;;;;;;;14.99;100.00;99469.38;12229663;19;20006;-79
2023/05/21 01:41:30;;;;;;;24.58;13.65;;;;;;;14.91;100.00;99458.91;12206187;19;20381;-78
2023/05/21 01:45:38;;;;;;;20.98;14.18;;;;;;;14.93;100.00;99453.88;12225474;19;20010;-78
2023/05/21 01:49:40;;;;;;;26.15;14.75;;;;;;;14.88;100.00;99454.75;12232398;19;20009;-79
2023/05/21 01:53:42;;;;;;;22.70;14.57;;;;;;;14.85;100.00;99457.28;12206246;19;20015;-80
2023/05/21 01:57:44;;;;;;;21.42;13.98;;;;;;;14.81;100.00;99455.09;12214341;19;20023;-80
2023/05/21 02:01:46;;;;;;;22.50;13.20;;;;;;;14.77;100.00;99450.38;12212175;19;20066;-79
2023/05/21 02:05:48;;;;;;;21.00;13.77;;;;;;;14.75;100.00;99447.06;12191906;19;20011;-80
2023/05/21 02:09:49;;;;;;;26.70;15.52;;;;;;;14.71;100.00;99443.22;12217289;19;20618;-80
2023/05/21 02:13:56;;;;;;;22.65;14.50;;;;;;;14.68;100.00;99446.56;12213092;19;20487;-80
2023/05/21 02:17:57;;;;;;;23.83;14.48;;;;;;;14.65;100.00;99444.38;12190428;19;20013;-80
2023/05/21 02:21:59;;;;;;;21.92;13.75;;;;;;;14.64;100.00;99449.09;12215664;19;20011;-80
2023/05/21 02:26:01;;;;;;;24.80;13.73;;;;;;;14.66;100.00;99451.56;12214709;19;20010;-80
2023/05/21 02:30:06;;;;;;;24.70;13.38;;;;;;;14.66;100.00;99448.78;12195980;19;20800;-80
2023/05/21 02:34:08;;;;;;;22.58;13.63;;;;;;;14.68;100.00;99446.56;12246396;19;20089;-78
2023/05/21 02:38:12;;;;;;;21.95;14.55;;;;;;;14.69;100.00;99440.72;12233155;19;20018;-78
2023/05/21 02:42:14;;;;;;;22.45;14.73;;;;;;;14.75;100.00;99447.06;12241014;19;20006;-80
2023/05/21 02:46:16;;;;;;;24.55;14.95;;;;;;;14.77;100.00;99445.66;12212842;19;20023;-79
2023/05/21 02:50:18;;;;;;;19.20;12.77;;;;;;;14.79;100.00;99448.16;12192110;19;20002;-80
2023/05/21 02:54:26;;;;;;;23.70;14.40;;;;;;;14.78;100.00;99439.03;12215441;19;20006;-79
2023/05/21 02:58:28;;;;;;;25.33;13.95;;;;;;;14.79;100.00;99451.75;12210405;19;20006;-79
2023/05/21 03:02:31;;;;;;;23.80;14.23;;;;;;;14.77;100.00;99447.63;12188949;19;20109;-79
2023/05/21 03:06:33;;;;;;;21.60;13.18;;;;;;;14.78;100.00;99452.03;12208130;19;20004;-79
2023/05/21 03:10:36;;;;;;;25.08;14.13;;;;;;;14.71;100.00;99444.03;12212129;19;20011;-80
2023/05/21 03:14:38;;;;;;;23.50;13.75;;;;;;;14.68;100.00;99450.16;12191698;19;20014;-80
2023/05/21 03:18:40;;;;;;;26.67;14.07;;;;;;;14.66;100.00;99437.69;12208453;19;20006;-80
2023/05/21 03:22:43;;;;;;;23.50;14.23;;;;;;;14.59;100.00;99441.59;12207761;19;20024;-80
2023/05/21 03:26:47;;;;;;;24.70;14.07;;;;;;;14.53;100.00;99434.44;12187934;19;20014;-80
2023/05/21 03:30:49;;;;;;;22.95;13.98;;;;;;;14.48;100.00;99434.41;12209626;19;20074;-80
2023/05/21 03:35:14;;;;;;;22.83;13.98;;;;;;;14.43;100.00;99422.56;12186616;19;20639;-80
2023/05/21 03:39:16;;;;;;;22.37;13.93;;;;;;;14.39;100.00;99427.00;12203687;19;20440;-80
2023/05/21 03:43:18;;;;;;;24.20;14.50;;;;;;;14.32;100.00;99427.31;12204221;19;20287;-82
2023/05/21 03:47:20;;;;;;;23.10;14.98;;;;;;;14.28;100.00;99423.44;12189269;19;20011;-80
2023/05/21 03:51:24;;;;;;;22.55;14.40;;;;;;;14.24;100.00;99431.47;12210504;19;20006;-82
2023/05/21 03:55:26;;;;;;;26.67;15.07;;;;;;;14.22;100.00;99432.88;12209616;19;20018;-80
2023/05/21 03:59:28;;;;;;;24.23;14.32;;;;;;;14.19;100.00;99433.44;12189802;19;20059;-82
2023/05/21 04:03:31;;;;;;;23.20;14.63;;;;;;;14.21;100.00;99439.53;12204541;19;20010;-81
2023/05/21 04:07:37;;;;;;;23.88;14.85;;;;;;;14.23;100.00;99431.78;12209119;19;20308;-81
2023/05/21 04:11:40;;;;;;;22.98;14.63;;;;;;;14.25;100.00;99433.16;12189297;19;20003;-81
2023/05/21 04:15:45;;;;;;;26.02;14.93;;;;;;;14.30;100.00;99435.88;12209886;19;20015;-80
2023/05/21 04:19:47;;;;;;;25.73;15.43;;;;;;;14.33;100.00;99434.50;12208351;19;20017;-81
2023/05/21 04:23:49;;;;;;;22.70;13.83;;;;;;;14.37;100.00;99438.38;12186685;19;20015;-81
2023/05/21 04:28:06;;;;;;;27.27;14.82;;;;;;;14.45;100.00;99442.47;12205395;19;20023;-81
2023/05/21 04:32:08;;;;;;;21.38;13.65;;;;;;;14.50;100.00;99442.47;12186700;19;20006;-81
2023/05/21 04:36:10;;;;;;;22.70;14.53;;;;;;;14.54;100.00;99452.72;12204608;19;20423;-80
2023/05/21 04:40:17;;;;;;;22.95;14.40;;;;;;;14.62;100.00;99454.06;12206172;19;20021;-81
2023/05/21 04:44:19;;;;;;;26.00;14.18;;;;;;;14.68;100.00;99454.88;12186509;19;20010;-80
2023/05/21 04:48:25;;;;;;;25.57;15.20;;;;;;;14.72;100.00;99455.97;12205035;19;20921;-81
2023/05/21 04:52:27;;;;;;;22.30;13.35;;;;;;;14.76;100.00;99451.50;12205450;19;20029;-81
2023/05/21 04:56:30;;;;;;;21.08;13.75;;;;;;;14.82;100.00;99453.13;12190208;19;20612;-80
2023/05/21 05:00:33;;;;;;;21.00;13.90;;;;;;;14.87;100.00;99464.19;12222730;19;20133;-80
2023/05/21 05:04:35;;;;;;;23.10;14.85;;;;;;;14.89;100.00;99448.09;12223136;19;20014;-80
2023/05/21 05:08:37;;;;;;;23.23;15.00;;;;;;;14.93;100.00;99448.34;12199091;19;20017;-80
2023/05/21 05:12:38;;;;;;;21.73;13.23;;;;;;;14.93;100.00;99449.19;12218916;19;20006;-81
2023/05/21 05:16:41;;;;;;;21.02;13.57;;;;;;;14.95;100.00;99454.44;12215659;19;20459;-80
2023/05/21 05:20:43;;;;;;;26.83;14.82;;;;;;;14.97;100.00;99452.22;12195205;19;20033;-80
2023/05/21 05:24:45;;;;;;;22.25;14.52;;;;;;;15.07;100.00;99448.53;12215968;19;20360;-81
2023/05/21 05:28:47;;;;;;;21.77;13.68;;;;;;;15.18;100.00;99450.13;12216500;19;20013;-81
2023/05/21 05:32:49;;;;;;;22.15;14.27;;;;;;;15.27;100.00;99449.22;12195862;19;20045;-81
2023/05/21 05:36:52;;;;;;;21.30;13.85;;;;;;;15.41;100.00;99454.94;12215774;19;20014;-81
2023/05/21 05:40:53;;;;;;;22.17;13.25;;;;;;;15.55;100.00;99451.47;12217538;19;20007;-82
2023/05/21 05:44:56;;;;;;;21.25;14.07;;;;;;;15.73;100.00;99442.44;12194261;19;20013;-80
2023/05/21 05:48:57;;;;;;;24.33;15.43;;;;;;;15.94;100.00;99443.06;12213508;19;20010;-80
2023/05/21 05:52:59;;;;;;;21.00;14.32;;;;;;;16.14;100.00;99445.63;12216452;19;20086;-81
2023/05/21 05:57:03;;;;;;;23.67;14.43;;;;;;;16.37;100.00;99443.13;12191908;19;20543;-81
2023/05/21 06:01:04;;;;;;;18.33;12.93;;;;;;;16.62;100.00;99451.13;12214312;19;20369;-80
2023/05/21 06:05:08;;;;;;;21.95;13.13;;;;;;;16.83;100.00;99446.13;12196542;19;20239;-80
2023/05/21 06:09:11;;;;;;;18.92;13.20;;;;;;;17.01;100.00;99435.31;12214171;19;20011;-80
2023/05/21 06:13:12;;;;;;;19.33;12.80;;;;;;;17.11;100.00;99440.75;12213474;19;20031;-79
2023/05/21 06:17:15;;;;;;;20.13;13.35;;;;;;;17.31;100.00;99443.19;12190186;19;20451;-80
2023/05/21 06:21:17;;;;;;;20.20;12.63;;;;;;;17.50;100.00;99448.72;12211547;19;20017;-81
2023/05/21 06:25:19;;;;;;;19.98;13.15;;;;;;;17.71;100.00;99449.19;12210887;19;20046;-81
2023/05/21 06:29:23;;;;;;;18.20;12.88;;;;;;;17.99;100.00;99447.34;12193953;19;20021;-81
2023/05/21 06:33:26;;;;;;;20.77;13.37;;;;;;;18.24;100.00;99449.94;12214305;19;20002;-80
2023/05/21 06:37:28;;;;;;;21.13;13.27;;;;;;;18.47;100.00;99445.25;12211462;19;20010;-80
2023/05/21 06:41:30;;;;;;;17.20;11.93;;;;;;;18.76;100.00;99444.94;12192510;19;20007;-79
2023/05/21 06:45:36;;;;;;;21.05;13.20;;;;;;;19.09;100.00;99448.34;12211412;19;20018;-80
2023/05/21 06:49:54;;;;;;;19.70;12.30;;;;;;;19.39;100.00;99448.78;12214773;19;20078;-80
2023/05/21 06:53:56;;;;;;;17.60;12.57;;;;;;;19.67;100.00;99452.28;12185417;19;20118;-80
2023/05/21 06:57:59;;;;;;;19.00;12.13;;;;;;;19.79;100.00;99453.34;12213651;19;20030;-80
2023/05/21 07:02:01;;;;;;;18.03;11.83;;;;;;;19.80;100.00;99459.75;12211364;19;20018;-80
2023/05/21 07:06:05;;;;;;;16.52;12.73;;;;;;;19.83;100.00;99458.31;12190911;19;20006;-81
2023/05/21 07:10:08;;;;;;;;;;;;;;;19.66;100.00;99457.06;12212138;19;20014;-80
2023/05/21 07:14:10;;;;;;;20.38;11.88;;;;;;;19.60;100.00;99458.28;12191921;19;20651;-80
2023/05/21 07:18:12;;;;;;;17.40;12.02;;;;;;;19.65;100.00;99454.56;12210632;19;20507;-81
2023/05/21 07:22:14;;;;;;;15.73;11.93;;;;;;;19.66;100.00;99459.00;12209314;19;20027;-80
2023/05/21 07:26:17;;;;;;;18.48;13.25;;;;;;;19.70;100.00;99460.03;12187205;19;20010;-80
2023/05/21 07:30:19;;;;;;;15.00;11.45;;;;;;;19.74;100.00;99458.25;12211261;19;20074;-81
2023/05/21 07:34:21;;;;;;;16.98;11.85;;;;;;;19.86;100.00;99455.69;12209163;19;20027;-80
2023/05/21 07:38:23;;;;;;;18.05;12.13;;;;;;;20.04;100.00;99456.59;12189168;19;20010;-83
2023/05/21 07:42:25;;;;;;;16.67;12.07;;;;;;;20.23;100.00;99453.59;12207619;19;20011;-81
2023/05/21 07:46:29;;;;;;;16.08;12.10;;;;;;;20.38;98.44;99452.31;12203898;19;20111;-80
2023/05/21 07:50:32;;;;;;;16.42;11.85;;;;;;;20.61;96.86;99441.88;12187150;19;20027;-81
2023/05/21 07:54:34;;;;;;;18.60;12.10;;;;;;;20.97;90.12;99443.56;12217952;19;20010;-82
2023/05/21 07:58:36;;;;;;;15.73;11.68;;;;;;;21.15;92.81;99446.06;12206457;19;20018;-81
2023/05/21 08:02:39;;;;;;;17.07;12.53;;;;;;;21.50;91.49;99448.06;12181898;19;20735;-81
2023/05/21 08:06:41;;;;;;;;;;;;;;;21.66;88.26;99457.59;12206076;19;20280;-82
2023/05/21 08:10:45;;;;;;;17.23;11.50;;;;;;;21.68;87.91;99446.03;12215251;19;19978;-81
2023/05/21 08:14:47;;;;;;;13.90;11.30;;;;;;;21.85;86.67;99452.44;12194997;19;20086;-82
2023/05/21 08:18:50;;;;;;;14.38;10.93;;;;;;;22.15;86.00;99449.69;12212708;19;20463;-82
2023/05/21 08:22:53;;;;;;;14.27;11.07;;;;;;;22.28;85.19;99453.50;12217301;19;20014;-82
2023/05/21 08:26:56;;;;;;;15.57;12.15;;;;;;;22.40;84.54;99449.94;12195264;19;20018;-81
2023/05/21 08:30:58;;;;;;;17.60;11.85;;;;;;;22.38;82.71;99446.69;12219786;19;20015;-82
2023/05/21 08:35:00;;;;;;;16.30;11.87;;;;;;;22.52;80.34;99453.72;12213231;19;20011;-82
2023/05/21 08:39:24;;;;;;;16.85;11.80;;;;;;;22.74;79.13;99449.78;12198320;19;20475;-81
2023/05/21 08:43:27;;;;;;;16.63;11.98;;;;;;;22.93;78.70;99445.69;12218666;19;20011;-81
2023/05/21 08:47:34;;;;;;;15.18;11.02;;;;;;;23.10;78.10;99444.75;12195977;19;20113;-81
2023/05/21 08:51:40;;;;;;;17.15;11.30;;;;;;;23.08;73.72;99447.94;12220625;19;20003;-82
2023/05/21 08:55:43;;;;;;;14.20;10.90;;;;;;;23.22;74.23;99446.81;12218569;19;20026;-82
2023/05/21 08:59:47;;;;;;;21.35;11.52;;;;;;;23.41;75.80;99453.59;12200154;19;20419;-82
2023/05/21 09:03:58;;;;;;;14.50;10.63;;;;;;;23.50;72.29;99445.09;12194401;19;20035;-82
2023/05/21 09:08:26;;;;;;;14.60;10.70;;;;;;;23.62;70.85;99453.56;12204612;19;20011;-82
2023/05/21 09:12:35;;;;;;;14.02;11.48;;;;;;;23.70;70.10;99445.41;12221380;19;20078;-82
2023/05/21 09:16:37;;;;;;;14.52;11.80;;;;;;;23.77;70.66;99442.88;12219797;19;20064;-82
2023/05/21 09:20:39;;;;;;;13.90;11.05;;;;;;;23.72;70.56;99446.72;12198090;19;20007;-82
2023/05/21 09:24:43;;;;;;;11.77;9.98;;;;;;;23.84;69.35;99441.13;12222458;19;20042;-81
2023/05/21 09:28:44;;;;;;;14.00;10.05;;;;;;;23.98;67.09;99440.81;12229266;19;20011;-82
2023/05/21 09:32:57;;;;;;;15.25;10.60;;;;;;;24.21;68.97;99446.84;12206568;19;20006;-82
2023/05/21 09:37:01;;;;;;;13.30;10.85;;;;;;;24.42;66.84;99445.91;12227085;19;20010;-82
2023/05/21 09:41:05;;;;;;;15.85;10.55;;;;;;;24.36;67.29;99430.41;12225207;19;20011;-82
2023/05/21 09:45:09;;;;;;;13.40;10.18;;;;;;;24.46;65.79;99433.63;12227080;19;20013;-82
2023/05/21 09:49:26;;;;;;;11.48;9.57;;;;;;;24.44;63.07;99432.31;12219414;19;20006;-81
2023/05/21 09:53:30;;;;;;;13.10;8.88;;;;;;;24.46;63.97;99438.44;12200238;19;20097;-80
2023/05/21 09:57:40;;;;;;;12.07;9.48;;;;;;;24.40;63.14;99446.25;12225340;19;20030;-80
2023/05/21 10:01:42;;;;;;;13.43;9.90;;;;;;;24.18;61.32;99436.25;12227395;19;20007;-83
2023/05/21 10:05:44;;;;;;;12.23;9.20;;;;;;;24.18;64.17;99439.06;12170443;19;20022;-81
2023/05/21 10:09:49;;;;;;;12.82;9.70;;;;;;;24.43;63.88;99434.31;12213242;19;20010;-81
2023/05/21 10:14:08;;;;;;;13.15;9.55;;;;;;;24.44;62.28;99430.31;12217439;19;20014;-81
2023/05/21 10:18:12;;;;;;;13.35;9.65;;;;;;;24.63;62.44;99429.75;12205455;19;20006;-81
2023/05/21 10:22:15;;;;;;;15.40;10.90;;;;;;;24.71;61.13;99433.59;12203566;19;20010;-78
2023/05/21 10:26:20;;;;;;;13.85;10.45;;;;;;;24.59;59.42;99420.34;12202601;19;20007;-79
2023/05/21 10:30:23;;;;;;;13.82;9.63;;;;;;;24.63;60.48;99421.28;12238319;19;20502;-79
2023/05/21 10:34:26;;;;;;;12.43;9.85;;;;;;;25.00;59.61;99418.41;12227208;19;20473;-79
2023/05/21 10:38:31;;;;;;;14.40;10.00;;;;;;;25.54;59.26;99414.38;12194967;19;20010;-79
2023/05/21 10:42:33;;;;;;;11.30;9.55;;;;;;;26.09;56.35;99421.16;12221235;19;20018;-80
2023/05/21 10:46:48;;;;;;;;;;;;;;;26.42;55.22;99411.47;12219032;19;20007;-81
2023/05/21 10:51:37;;;;;;;12.63;9.10;;;;;;;26.92;54.42;99404.19;12200527;19;19918;-81
2023/05/21 10:55:44;;;;;;;13.65;9.90;;;;;;;27.29;46.33;99409.47;12221890;19;20030;-82
2023/05/21 10:59:47;;;;;;;15.18;9.80;;;;;;;27.18;50.19;99397.91;12208690;19;20482;-81
2023/05/21 11:03:49;;;;;;;14.15;9.75;;;;;;;27.68;50.43;99405.41;12225099;19;20074;-80
2023/05/21 11:08:00;;;;;;;15.60;10.20;;;;;;;28.03;48.13;99395.97;12227964;19;20946;-81
2023/05/21 11:12:22;;;;;;;11.75;8.80;;;;;;;27.81;47.82;99396.78;12210756;19;20018;-81
2023/05/21 11:16:35;;;;;;;14.55;10.20;;;;;;;27.96;48.35;99390.16;12227408;19;20409;-81
2023/05/21 11:20:37;;;;;;;11.70;8.98;;;;;;;28.10;46.27;99390.44;12211657;19;20015;-80
2023/05/21 11:24:40;;;;;;;11.18;9.88;;;;;;;28.49;46.92;99387.44;12245878;19;20006;-81
2023/05/21 11:28:42;;;;;;;12.15;9.02;;;;;;;28.73;43.38;99382.53;12234609;19;20126;-81
2023/05/21 11:33:12;;;;;;;13.43;10.27;;;;;;;28.30;45.75;99379.03;12211101;19;20070;-81
2023/05/21 11:37:33;;;;;;;9.82;8.57;;;;;;;28.18;44.43;99380.06;12229968;19;20019;-81
2023/05/21 11:41:57;;;;;;;14.40;9.60;;;;;;;27.96;43.71;99373.19;12197030;19;19999;-81
2023/05/21 11:46:04;;;;;;;12.07;8.90;;;;;;;28.07;45.36;99374.19;12224570;19;20011;-80
2023/05/21 11:50:12;;;;;;;11.05;9.38;;;;;;;28.24;45.06;99381.38;12205338;19;20017;-80
2023/05/21 11:54:18;;;;;;;11.07;9.07;;;;;;;28.53;44.64;99371.34;12209052;19;20011;-83
2023/05/21 11:58:21;;;;;;;11.07;9.57;;;;;;;28.75;43.82;99368.81;12214738;19;20002;-81
2023/05/21 12:02:28;;;;;;;9.05;8.15;;;;;;;29.16;42.00;99366.97;12206806;19;20018;-82
2023/05/21 12:06:33;;;;;;;10.77;9.13;;;;;;;29.83;41.38;99368.97;12229532;19;20011;-82
2023/05/21 12:10:38;;;;;;;10.20;8.45;;;;;;;30.57;39.46;99359.44;12238196;19;20046;-83
2023/05/21 12:14:47;;;;;;;11.70;9.70;;;;;;;30.92;37.89;99357.25;12230351;19;20015;-81
2023/05/21 12:18:50;;;;;;;12.63;9.57;;;;;;;31.04;38.30;99360.56;12236626;19;20010;-82
2023/05/21 12:22:53;;;;;;;11.93;10.07;;;;;;;31.93;35.93;99353.56;12249592;19;20005;-82
2023/05/21 12:26:58;;;;;;;13.73;9.30;;;;;;;32.22;35.77;99371.50;12213699;19;20708;-82
2023/05/21 12:31:00;;;;;;;11.73;10.38;;;;;;;32.62;34.08;99360.91;12244703;19;20015;-82
2023/05/21 12:35:02;;;;;;;10.55;9.55;;;;;;;33.02;33.00;99355.91;12235382;19;20452;-81
2023/05/21 12:39:07;;;;;;;10.88;9.77;;;;;;;33.73;31.71;99349.91;12215722;19;20639;-82
2023/05/21 12:43:12;;;;;;;10.30;9.20;;;;;;;34.14;30.07;99346.34;12229659;19;20015;-83
2023/05/21 12:47:14;;;;;;;9.88;8.88;;;;;;;34.52;30.02;99348.47;12209934;19;20489;-82
2023/05/21 12:51:16;;;;;;;9.57;8.60;;;;;;;35.15;29.32;99346.16;12247410;19;20014;-80
2023/05/21 12:55:17;;;;;;;10.32;9.23;;;;;;;35.62;28.28;99346.38;12244908;19;20018;-80
2023/05/21 12:59:20;;;;;;;10.45;9.23;;;;;;;35.75;27.44;99341.69;12216268;19;20014;-81
2023/05/21 13:03:22;;;;;;;13.73;9.98;;;;;;;35.71;27.38;99340.94;12245128;19;20042;-82
2023/05/21 13:07:26;;;;;;;10.52;9.43;;;;;;;35.91;28.11;99331.63;12241480;19;20039;-81
2023/05/21 13:11:28;;;;;;;10.38;9.20;;;;;;;36.57;27.34;99338.75;12216324;19;20060;-83
2023/05/21 13:15:30;;;;;;;11.23;9.68;;;;;;;36.58;26.67;99344.03;12233581;19;20403;-82
2023/05/21 13:19:33;;;;;;;10.98;9.35;;;;;;;36.61;25.64;99325.94;12242512;19;20011;-83
2023/05/21 13:23:34;;;;;;;10.52;9.52;;;;;;;36.41;26.51;99327.91;12204898;19;20022;-81
2023/05/21 13:27:37;;;;;;;10.95;9.85;;;;;;;36.46;26.72;99336.03;12245510;19;20007;-81
2023/05/21 13:31:43;;;;;;;10.73;9.52;;;;;;;36.71;26.00;99327.00;12235478;19;20464;-80
2023/05/21 13:35:49;;;;;;;10.52;9.43;;;;;;;36.98;25.94;99320.31;12205994;19;20010;-81
2023/05/21 13:39:51;;;;;;;10.95;9.88;;;;;;;37.38;26.15;99330.53;12228971;19;20007;-83
2023/05/21 13:43:53;;;;;;;12.75;9.70;;;;;;;37.47;25.47;99327.09;12228082;19;20010;-82
2023/05/21 13:47:55;;;;;;;11.48;9.90;;;;;;;37.98;25.13;99315.22;12207845;19;20598;-80
2023/05/21 13:51:59;;;;;;;10.75;9.15;;;;;;;38.25;24.78;99314.94;12233287;19;20014;-81
2023/05/21 13:56:00;;;;;;;10.63;8.85;;;;;;;38.64;24.75;99316.81;12238362;19;20025;-82
2023/05/21 14:00:08;;;;;;;9.90;7.90;;;;;;;38.78;22.51;99318.47;12211936;19;20522;-81
2023/05/21 14:04:11;;;;;;;8.18;7.38;;;;;;;38.27;21.93;99319.00;12234973;19;20018;-80
2023/05/21 14:08:15;;;;;;;8.32;7.53;;;;;;;38.05;22.35;99315.06;12209441;19;20021;-80
2023/05/21 14:12:20;;;;;;;8.80;7.90;;;;;;;37.66;22.67;99318.84;12225229;19;20614;-81
2023/05/21 14:16:26;;;;;;;8.68;7.78;;;;;;;37.14;23.12;99320.41;12227808;19;20463;-82
2023/05/21 14:20:29;;;;;;;9.77;8.88;;;;;;;36.45;23.78;99320.06;12204493;19;20605;-80
2023/05/21 14:24:31;;;;;;;11.05;8.30;;;;;;;36.23;23.99;99311.88;12230053;19;20029;-82
2023/05/21 14:28:34;;;;;;;11.38;8.77;;;;;;;35.98;25.07;99309.38;12232536;19;20078;-82
2023/05/21 14:32:36;;;;;;;9.07;8.27;;;;;;;34.99;25.72;99315.25;12209725;19;20009;-82
2023/05/21 14:36:39;;;;;;;10.20;9.20;;;;;;;34.49;26.73;99315.78;12235795;19;20050;-81
2023/05/21 14:40:41;;;;;;;10.32;9.27;;;;;;;34.06;27.80;99321.09;12234978;19;20460;-81
2023/05/21 14:44:43;;;;;;;9.38;8.45;;;;;;;33.18;28.74;99319.16;12209972;19;20105;-81
2023/05/21 14:48:45;;;;;;;11.43;8.80;;;;;;;32.50;28.90;99319.34;12223497;19;20064;-81
2023/05/21 14:52:47;;;;;;;9.68;8.60;;;;;;;32.20;29.11;99317.75;12227003;19;20574;-81
2023/05/21 14:56:49;;;;;;;10.98;8.63;;;;;;;31.84;30.15;99319.75;12205233;19;20022;-81
2023/05/21 15:00:51;;;;;;;9.82;8.25;;;;;;;31.66;30.24;99319.72;12234233;19;20014;-81
2023/05/21 15:04:55;;;;;;;8.93;7.65;;;;;;;31.23;30.67;99305.34;12216272;19;20017;-81
2023/05/21 15:08:57;;;;;;;9.88;7.75;;;;;;;31.03;31.07;99306.94;12211126;19;20062;-81
2023/05/21 15:12:59;;;;;;;;;;;;;;;30.77;30.73;99311.66;12223219;19;20031;-80
2023/05/21 15:17:00;;;;;;;11.48;8.00;;;;;;;30.56;31.86;99312.34;12225486;19;19914;-80
2023/05/21 15:21:03;;;;;;;12.07;7.45;;;;;;;30.25;32.69;99302.38;12202981;19;20010;-82
2023/05/21 15:25:06;;;;;;;11.15;8.23;;;;;;;29.96;32.74;99295.66;12226239;19;20014;-83
2023/05/21 15:29:08;;;;;;;9.05;8.05;;;;;;;29.86;33.10;99297.16;12202047;19;20006;-82
2023/05/21 15:33:10;;;;;;;10.20;7.50;;;;;;;29.86;33.72;99296.38;12223778;19;20010;-82
2023/05/21 15:37:15;;;;;;;11.93;7.63;;;;;;;29.81;33.90;99291.88;12214835;19;20011;-82
2023/05/21 15:41:20;;;;;;;9.70;7.60;;;;;;;29.73;35.69;99293.00;12206145;19;20009;-82
2023/05/21 15:45:23;;;;;;;9.48;7.97;;;;;;;29.59;36.52;99298.53;12226632;19;20485;-82
2023/05/21 15:49:26;;;;;;;10.95;7.78;;;;;;;29.41;37.19;99290.63;12221483;19;20400;-82
2023/05/21 15:53:29;;;;;;;11.02;7.60;;;;;;;29.23;37.07;99292.47;12195370;19;20011;-82
2023/05/21 15:57:30;;;;;;;10.23;8.38;;;;;;;29.17;37.29;99288.34;12217376;19;20074;-82
2023/05/21 16:01:32;;;;;;;11.55;7.68;;;;;;;29.09;37.07;99287.44;12216580;19;20293;-82
2023/05/21 16:05:34;;;;;;;9.73;7.68;;;;;;;29.04;37.87;99284.97;12196046;19;20015;-82
2023/05/21 16:09:37;;;;;;;;;;;;;;;28.91;37.63;99292.88;12217792;19;20007;-82
2023/05/21 16:13:39;;;;;;;8.55;7.25;;;;;;;28.84;38.42;99287.94;12218338;19;19928;-80
2023/05/21 16:17:41;;;;;;;13.90;7.85;;;;;;;28.74;38.95;99293.47;12193804;19;20540;-82
2023/05/21 16:21:43;;;;;;;9.77;7.43;;;;;;;28.70;38.37;99295.44;12212416;19;20010;-80
2023/05/21 16:25:44;;;;;;;11.15;6.93;;;;;;;28.55;39.34;99291.59;12213485;19;20010;-79
2023/05/21 16:29:47;;;;;;;9.00;7.07;;;;;;;28.41;38.51;99303.56;12191474;19;20014;-82
2023/05/21 16:33:48;;;;;;;9.00;7.40;;;;;;;28.28;39.94;99293.59;12214787;19;20014;-82
2023/05/21 16:37:50;;;;;;;8.82;7.65;;;;;;;28.27;38.95;99294.81;12214679;19;20439;-83
2023/05/21 16:41:53;;;;;;;10.38;7.13;;;;;;;28.28;38.98;99299.25;12191685;19;20023;-80
2023/05/21 16:45:55;;;;;;;10.73;8.50;;;;;;;28.26;38.99;99295.97;12209213;19;20022;-82
2023/05/21 16:49:57;;;;;;;10.20;8.40;;;;;;;28.18;39.35;99293.03;12215128;19;20019;-82
2023/05/21 16:53:59;;;;;;;10.63;8.90;;;;;;;28.15;39.72;99298.66;12189435;19;20006;-80
2023/05/21 16:58:03;;;;;;;10.52;7.78;;;;;;;28.22;39.32;99290.25;12211152;19;20007;-82
2023/05/21 17:02:06;;;;;;;9.63;7.75;;;;;;;28.27;39.10;99295.63;12223840;19;20006;-82
2023/05/21 17:06:08;;;;;;;8.90;7.65;;;;;;;28.46;38.31;99297.53;12195447;19;20017;-82
2023/05/21 17:10:10;;;;;;;11.15;8.77;;;;;;;28.59;38.21;99298.94;12217501;19;20007;-82
2023/05/21 17:14:12;;;;;;;10.75;7.95;;;;;;;28.47;40.12;99304.03;12198800;19;20006;-82
2023/05/21 17:18:33;;;;;;;10.00;8.43;;;;;;;28.48;40.01;99297.16;12217152;19;20011;-80
2023/05/21 17:22:35;;;;;;;10.60;8.55;;;;;;;28.52;39.81;99298.03;12223882;19;20094;-80
2023/05/21 17:26:37;;;;;;;11.20;8.40;;;;;;;28.53;40.45;99306.16;12198235;19;20459;-81
2023/05/21 17:30:40;;;;;;;9.57;7.82;;;;;;;28.36;41.70;99306.69;12202336;19;20010;-80
2023/05/21 17:34:42;;;;;;;;;;;;;;;28.04;41.01;99306.97;12226556;19;20376;-81
2023/05/21 17:38:44;;;;;;;;;;;;;;;27.87;41.32;99308.34;12208440;19;19914;-80
2023/05/21 17:42:46;;;;;;;10.15;8.23;;;;;;;27.81;41.69;99309.84;12230685;19;19918;-81
2023/05/21 17:46:49;;;;;;;11.68;9.27;;;;;;;27.67;44.96;99312.41;12224880;19;20007;-80
2023/05/21 17:50:51;;;;;;;9.45;8.45;;;;;;;27.47;45.58;99312.44;12200882;19;20006;-80
2023/05/21 17:54:52;;;;;;;11.52;9.25;;;;;;;27.31;47.03;99314.56;12222821;19;20013;-82
2023/05/21 17:58:54;;;;;;;11.45;8.60;;;;;;;27.12;46.98;99311.72;12223670;19;20017;-80
2023/05/21 18:02:56;;;;;;;10.05;8.35;;;;;;;26.87;49.87;99311.22;12199590;19;20119;-80
2023/05/21 18:06:59;;;;;;;11.00;9.15;;;;;;;26.61;50.08;99309.03;12219392;19;20011;-81
2023/05/21 18:11:02;;;;;;;10.98;8.55;;;;;;;26.40;51.80;99314.97;12217565;19;20029;-81
2023/05/21 18:15:06;;;;;;;11.38;9.10;;;;;;;26.18;53.85;99305.19;12197877;19;20475;-80
2023/05/21 18:19:09;;;;;;;11.52;8.35;;;;;;;25.96;55.72;99307.47;12218015;19;20006;-80
2023/05/21 18:23:10;;;;;;;11.88;8.82;;;;;;;25.77;55.88;99310.19;12200953;19;20003;-80
2023/05/21 18:27:12;;;;;;;11.10;8.95;;;;;;;25.48;56.21;99303.78;12223673;19;20007;-81
2023/05/21 18:31:16;;;;;;;12.27;8.70;;;;;;;25.18;57.22;99314.66;12224543;19;20027;-82
2023/05/21 18:35:18;;;;;;;12.90;8.48;;;;;;;24.89;58.20;99310.97;12197310;19;20037;-82